createdAt,value
2018-08-12T00:00:29.504Z,95836.00
2018-08-12T00:03:00.704Z,95829.00
2018-08-12T00:05:31.664Z,95838.00
2018-08-12T00:08:02.592Z,95834.00
2018-08-12T00:10:33.524Z,95836.00
2018-08-12T00:13:04.656Z,95829.00
2018-08-12T00:15:35.736Z,95827.00
2018-08-12T00:18:07.237Z,95821.00
2018-08-12T00:20:38.337Z,95823.00
2018-08-12T00:23:09.264Z,95821.00
2018-08-12T00:25:40.324Z,95822.00
2018-08-12T00:28:11.344Z,95821.00
2018-08-12T00:30:42.404Z,95817.00
2018-08-12T00:33:13.284Z,95822.00
2018-08-12T00:35:44.256Z,95824.00
2018-08-12T00:38:15.175Z,95821.00
2018-08-12T00:40:46.143Z,95817.00
2018-08-12T00:43:18.064Z,95822.00
2018-08-12T00:45:49.002Z,95814.00
2018-08-12T00:48:19.854Z,95811.00
2018-08-12T00:50:50.830Z,95815.00
2018-08-12T00:53:21.724Z,95817.00
2018-08-12T00:55:52.836Z,95813.00
2018-08-12T00:58:23.736Z,95817.00
2018-08-12T01:00:54.656Z,95810.00
2018-08-12T01:03:25.630Z,95812.00
2018-08-12T01:05:56.524Z,95815.00
2018-08-12T01:08:27.584Z,95804.00
2018-08-12T01:10:58.538Z,95803.00
2018-08-12T01:13:29.426Z,95803.00
2018-08-12T01:16:00.241Z,95803.00
2018-08-12T01:18:31.194Z,95804.00
2018-08-12T01:21:02.236Z,95800.00
2018-08-12T01:23:33.339Z,95800.00
2018-08-12T01:26:06.195Z,95801.00
2018-08-12T01:28:37.204Z,95802.00
2018-08-12T01:31:08.397Z,95805.00
2018-08-12T01:33:39.284Z,95799.00
2018-08-12T01:36:10.145Z,95803.00
2018-08-12T01:38:41.184Z,95800.00
2018-08-12T01:41:12.163Z,95794.00
2018-08-12T01:43:43.063Z,95790.00
2018-08-12T01:46:14.044Z,95789.00
2018-08-12T01:48:44.959Z,95784.00
2018-08-12T01:51:15.931Z,95787.00
2018-08-12T01:53:46.848Z,95791.00
2018-08-12T01:56:17.984Z,95786.00
2018-08-12T01:58:48.905Z,95790.00
2018-08-12T02:01:19.856Z,95781.00
2018-08-12T02:03:50.724Z,95781.00
2018-08-12T02:06:21.604Z,95780.00
2018-08-12T02:08:52.535Z,95780.00
2018-08-12T02:11:23.521Z,95781.00
2018-08-12T02:13:54.864Z,95778.00
2018-08-12T02:16:25.704Z,95777.00
2018-08-12T02:18:57.146Z,95776.00
2018-08-12T02:21:27.932Z,95775.00
2018-08-12T02:23:58.803Z,95776.00
2018-08-12T02:26:29.736Z,95771.00
2018-08-12T02:29:00.715Z,95767.00
2018-08-12T02:31:31.576Z,95766.00
2018-08-12T02:34:02.468Z,95757.00
2018-08-12T02:36:33.424Z,95752.00
2018-08-12T02:39:05.044Z,95756.00
2018-08-12T02:41:36.286Z,95762.00
2018-08-12T02:44:07.264Z,95755.00
2018-08-12T02:46:38.190Z,95750.00
2018-08-12T02:49:09.124Z,95742.00
2018-08-12T02:51:40.425Z,95740.00
2018-08-12T02:54:11.353Z,95742.00
2018-08-12T02:56:43.663Z,95741.00
2018-08-12T02:59:14.551Z,95735.00
2018-08-12T03:01:45.563Z,95736.00
2018-08-12T03:04:16.439Z,95737.00
2018-08-12T03:06:47.324Z,95738.00
2018-08-12T03:09:18.244Z,95738.00
2018-08-12T03:11:49.249Z,95740.00
2018-08-12T03:14:20.158Z,95736.00
2018-08-12T03:16:51.049Z,95733.00
2018-08-12T03:19:22.064Z,95729.00
2018-08-12T03:21:53.044Z,95721.00
2018-08-12T03:24:23.883Z,95724.00
2018-08-12T03:26:54.960Z,95724.00
2018-08-12T03:29:25.964Z,95724.00
2018-08-12T03:31:56.984Z,95728.00
2018-08-12T03:34:27.952Z,95728.00
2018-08-12T03:36:58.904Z,95729.00
2018-08-12T03:39:29.794Z,95728.00
2018-08-12T03:42:01.144Z,95725.00
2018-08-12T03:44:31.940Z,95722.00
2018-08-12T03:47:02.936Z,95726.00
2018-08-12T03:49:34.099Z,95722.00
2018-08-12T03:52:05.556Z,95730.00
2018-08-12T03:54:36.444Z,95727.00
2018-08-12T03:57:07.427Z,95722.00
2018-08-12T03:59:38.589Z,95725.00
2018-08-12T04:02:09.601Z,95725.00
2018-08-12T04:04:40.416Z,95729.00
2018-08-12T04:07:11.404Z,95723.00
2018-08-12T04:09:42.225Z,95722.00
2018-08-12T04:12:13.056Z,95718.00
2018-08-12T04:14:44.140Z,95720.00
2018-08-12T04:17:15.146Z,95721.00
2018-08-12T04:19:46.105Z,95721.00
2018-08-12T04:22:17.085Z,95715.00
2018-08-12T04:24:47.956Z,95713.00
2018-08-12T04:27:18.904Z,95712.00
2018-08-12T04:29:49.717Z,95714.00
2018-08-12T04:32:20.684Z,95708.00
2018-08-12T04:34:51.522Z,95711.00
2018-08-12T04:37:22.764Z,95709.00
2018-08-12T04:39:53.637Z,95708.00
2018-08-12T04:42:24.984Z,95715.00
2018-08-12T04:44:55.884Z,95711.00
2018-08-12T04:47:26.883Z,95710.00
2018-08-12T04:49:57.884Z,95710.00
2018-08-12T04:52:28.803Z,95711.00
2018-08-12T04:54:59.704Z,95713.00
2018-08-12T04:57:30.755Z,95710.00
2018-08-12T05:00:01.577Z,95709.00
2018-08-12T05:02:32.504Z,95706.00
2018-08-12T05:05:03.385Z,95709.00
2018-08-12T05:07:34.244Z,95709.00
2018-08-12T05:10:05.899Z,95710.00
2018-08-12T05:12:36.754Z,95701.00
2018-08-12T05:15:09.663Z,95703.00
2018-08-12T05:17:41.155Z,95701.00
2018-08-12T05:20:12.107Z,95703.00
2018-08-12T05:22:43.385Z,95699.00
2018-08-12T05:25:14.325Z,95702.00
2018-08-12T05:27:45.304Z,95699.00
2018-08-12T05:30:16.375Z,95692.00
2018-08-12T05:32:47.264Z,95687.00
2018-08-12T05:35:18.214Z,95688.00
2018-08-12T05:37:49.484Z,95686.00
2018-08-12T05:40:20.485Z,95690.00
2018-08-12T05:42:51.577Z,95680.00
2018-08-12T05:45:22.505Z,95683.00
2018-08-12T05:47:53.376Z,95683.00
2018-08-12T05:50:24.257Z,95687.00
2018-08-12T05:52:55.086Z,95683.00
2018-08-12T05:55:26.007Z,95678.00
2018-08-12T05:57:57.016Z,95675.00
2018-08-12T06:00:27.996Z,95677.00
2018-08-12T06:02:58.937Z,95680.00
2018-08-12T06:05:29.820Z,95678.00
2018-08-12T06:08:00.876Z,95672.00
2018-08-12T06:10:31.915Z,95668.00
2018-08-12T06:13:02.878Z,95663.00
2018-08-12T06:15:33.887Z,95660.00
2018-08-12T06:18:04.955Z,95658.00
2018-08-12T06:20:35.904Z,95651.00
2018-08-12T06:23:06.885Z,95644.00
2018-08-12T06:25:37.819Z,95641.00
2018-08-12T06:28:08.799Z,95642.00
2018-08-12T06:30:39.712Z,95637.00
2018-08-12T06:33:10.821Z,95634.00
2018-08-12T06:35:41.876Z,95634.00
2018-08-12T06:38:12.856Z,95629.00
2018-08-12T06:40:43.837Z,95634.00
2018-08-12T06:43:14.805Z,95631.00
2018-08-12T06:45:45.703Z,95626.00
2018-08-12T06:48:16.726Z,95629.00
2018-08-12T06:50:47.585Z,95618.00
2018-08-12T06:53:18.524Z,95617.00
2018-08-12T06:55:49.403Z,95615.00
2018-08-12T06:58:20.644Z,95618.00
2018-08-12T07:00:51.951Z,95615.00
2018-08-12T07:03:22.904Z,95614.00
2018-08-12T07:05:53.829Z,95611.00
2018-08-12T07:08:24.736Z,95608.00
2018-08-12T07:10:55.768Z,95607.00
2018-08-12T07:13:26.856Z,95610.00
2018-08-12T07:15:57.704Z,95606.00
2018-08-12T07:18:28.706Z,95607.00
2018-08-12T07:20:59.664Z,95597.00
2018-08-12T07:23:31.024Z,95587.00
2018-08-12T07:26:01.924Z,95578.00
2018-08-12T07:28:32.924Z,95578.00
2018-08-12T07:31:03.936Z,95581.00
2018-08-12T07:33:34.898Z,95575.00
2018-08-12T07:36:05.784Z,95570.00
2018-08-12T07:38:36.748Z,95569.00
2018-08-12T07:41:07.706Z,95560.00
2018-08-12T07:43:38.671Z,95560.00
2018-08-12T07:46:09.609Z,95556.00
2018-08-12T07:48:40.558Z,95554.00
2018-08-12T07:51:11.456Z,95550.00
2018-08-12T07:53:42.684Z,95542.00
2018-08-12T07:56:13.804Z,95541.00
2018-08-12T07:58:45.351Z,95539.00
2018-08-12T08:01:16.496Z,95538.00
2018-08-12T08:03:47.445Z,95541.00
2018-08-12T08:06:18.424Z,95536.00
2018-08-12T08:08:49.547Z,95530.00
2018-08-12T08:11:20.508Z,95527.00
2018-08-12T08:13:52.106Z,95528.00
2018-08-12T08:16:23.124Z,95527.00
2018-08-12T08:18:54.456Z,95524.00
2018-08-12T08:21:25.445Z,95519.00
2018-08-12T08:23:56.404Z,95524.00
2018-08-12T08:26:27.325Z,95519.00
2018-08-12T08:28:58.897Z,95511.00
2018-08-12T08:31:29.973Z,95512.00
2018-08-12T08:34:00.979Z,95503.00
2018-08-12T08:36:31.916Z,95500.00
2018-08-12T08:39:03.099Z,95494.00
2018-08-12T08:41:34.104Z,95495.00
2018-08-12T08:44:05.366Z,95495.00
2018-08-12T08:46:36.435Z,95489.00
2018-08-12T08:49:07.495Z,95488.00
2018-08-12T08:51:38.491Z,95486.00
2018-08-12T08:54:09.479Z,95485.00
2018-08-12T08:56:40.360Z,95474.00
2018-08-12T08:59:11.316Z,95472.00
2018-08-12T09:01:42.346Z,95472.00
2018-08-12T09:04:13.284Z,95466.00
2018-08-12T09:06:44.204Z,95459.00
2018-08-12T09:09:16.738Z,95464.00
2018-08-12T09:11:47.528Z,95465.00
2018-08-12T09:14:18.536Z,95465.00
2018-08-12T09:16:49.504Z,95460.00
2018-08-12T09:19:20.497Z,95457.00
2018-08-12T09:21:51.436Z,95459.00
2018-08-12T09:24:22.437Z,95457.00
2018-08-12T09:26:53.376Z,95450.00
2018-08-12T09:29:24.357Z,95445.00
2018-08-12T09:31:55.544Z,95440.00
2018-08-12T09:34:26.543Z,95437.00
2018-08-12T09:36:57.487Z,95435.00
2018-08-12T09:39:28.566Z,95435.00
2018-08-12T09:41:59.576Z,95435.00
2018-08-12T09:44:30.564Z,95425.00
2018-08-12T09:47:01.548Z,95423.00
2018-08-12T09:49:32.501Z,95415.00
2018-08-12T09:52:03.724Z,95416.00
2018-08-12T09:54:34.603Z,95408.00
2018-08-12T09:57:05.585Z,95406.00
2018-08-12T09:59:36.541Z,95401.00
2018-08-12T10:02:07.476Z,95399.00
2018-08-12T10:04:39.033Z,95393.00
2018-08-12T10:07:09.917Z,95386.00
2018-08-12T10:09:40.836Z,95377.00
2018-08-12T10:12:11.864Z,95374.00
2018-08-12T10:14:42.764Z,95374.00
2018-08-12T10:17:13.744Z,95369.00
2018-08-12T10:19:44.872Z,95368.00
2018-08-12T10:22:15.887Z,95362.00
2018-08-12T10:24:46.904Z,95360.00
2018-08-12T10:27:17.773Z,95363.00
2018-08-12T10:29:48.724Z,95357.00
2018-08-12T10:32:19.644Z,95353.00
2018-08-12T10:34:50.665Z,95349.00
2018-08-12T10:37:22.260Z,95352.00
2018-08-12T10:39:53.283Z,95342.00
2018-08-12T10:42:24.304Z,95337.00
2018-08-12T10:44:55.287Z,95336.00
2018-08-12T10:47:26.399Z,95333.00
2018-08-12T10:49:57.384Z,95327.00
2018-08-12T10:52:28.318Z,95322.00
2018-08-12T10:54:59.356Z,95318.00
2018-08-12T10:57:30.664Z,95318.00
2018-08-12T11:00:01.646Z,95311.00
2018-08-12T11:02:32.596Z,95306.00
2018-08-12T11:05:03.644Z,95303.00
2018-08-12T11:07:34.832Z,95300.00
2018-08-12T11:10:07.424Z,95289.00
2018-08-12T11:12:38.346Z,95289.00
2018-08-12T11:15:10.126Z,95285.00
2018-08-12T11:17:41.764Z,95283.00
2018-08-12T11:20:12.829Z,95278.00
2018-08-12T11:22:43.737Z,95275.00
2018-08-12T11:25:14.785Z,95272.00
2018-08-12T11:27:45.956Z,95273.00
2018-08-12T11:30:18.611Z,95271.00
2018-08-12T11:32:49.644Z,95275.00
2018-08-12T11:35:20.660Z,95275.00
2018-08-12T11:37:51.616Z,95270.00
2018-08-12T11:40:24.007Z,95267.00
2018-08-12T11:42:54.861Z,95269.00
2018-08-12T11:45:25.885Z,95255.00
2018-08-12T11:47:57.400Z,95256.00
2018-08-12T11:50:28.544Z,95251.00
2018-08-12T11:52:59.804Z,95244.00
2018-08-12T11:55:30.792Z,95242.00
2018-08-12T11:58:01.837Z,95235.00
2018-08-12T12:00:32.796Z,95228.00
2018-08-12T12:03:03.624Z,95226.00
2018-08-12T12:05:34.567Z,95214.00
2018-08-12T12:08:05.605Z,95215.00
2018-08-12T12:10:36.549Z,95213.00
2018-08-12T12:13:07.788Z,95215.00
2018-08-12T12:15:42.500Z,95204.00
2018-08-12T12:18:14.857Z,95199.00
2018-08-12T12:20:49.155Z,95190.00
2018-08-12T12:23:20.082Z,95192.00
2018-08-12T12:25:51.302Z,95188.00
2018-08-12T12:28:22.266Z,95182.00
2018-08-12T12:30:53.280Z,95173.00
2018-08-12T12:33:24.197Z,95166.00
2018-08-12T12:35:55.107Z,95174.00
2018-08-12T12:38:25.994Z,95168.00
2018-08-12T12:40:56.989Z,95163.00
2018-08-12T12:43:28.080Z,95157.00
2018-08-12T12:45:59.124Z,95160.00
2018-08-12T12:48:30.105Z,95152.00
2018-08-12T12:51:01.023Z,95147.00
2018-08-12T12:53:31.980Z,95144.00
2018-08-12T12:56:02.921Z,95150.00
2018-08-12T12:58:33.805Z,95141.00
2018-08-12T13:01:04.864Z,95140.00
2018-08-12T13:03:35.957Z,95139.00
2018-08-12T13:06:07.046Z,95134.00
2018-08-12T13:08:38.032Z,95134.00
2018-08-12T13:11:08.980Z,95127.00
2018-08-12T13:13:39.796Z,95127.00
2018-08-12T13:16:10.779Z,95123.00
2018-08-12T13:18:41.825Z,95120.00
2018-08-12T13:21:12.891Z,95114.00
2018-08-12T13:23:44.140Z,95112.00
2018-08-12T13:26:15.120Z,95104.00
2018-08-12T13:28:45.995Z,95108.00
2018-08-12T13:31:17.355Z,95092.00
2018-08-12T13:33:48.299Z,95093.00
2018-08-12T13:36:19.295Z,95089.00
2018-08-12T13:38:50.147Z,95085.00
2018-08-12T13:41:21.267Z,95082.00
2018-08-12T13:43:52.232Z,95076.00
2018-08-12T13:46:23.239Z,95077.00
2018-08-12T13:48:54.664Z,95073.00
2018-08-12T13:51:25.653Z,95069.00
2018-08-12T13:53:56.612Z,95060.00
2018-08-12T13:56:27.534Z,95066.00
2018-08-12T13:58:59.620Z,95067.00
2018-08-12T14:01:30.733Z,95062.00
2018-08-12T14:04:01.651Z,95054.00
2018-08-12T14:06:32.803Z,95054.00
2018-08-12T14:09:04.182Z,95046.00
2018-08-12T14:11:35.149Z,95046.00
2018-08-12T14:14:06.886Z,95044.00
2018-08-12T14:16:37.982Z,95035.00
2018-08-12T14:19:08.852Z,95033.00
2018-08-12T14:21:40.122Z,95028.00
2018-08-12T14:24:11.022Z,95023.00
2018-08-12T14:26:42.061Z,95030.00
2018-08-12T14:29:12.979Z,95023.00
2018-08-12T14:31:43.945Z,95016.00
2018-08-12T14:34:14.939Z,95022.00
2018-08-12T14:36:45.913Z,95021.00
2018-08-12T14:39:16.822Z,95019.00
2018-08-12T14:41:48.144Z,95020.00
2018-08-12T14:44:19.105Z,95011.00
2018-08-12T14:46:50.104Z,95000.00
2018-08-12T14:49:20.967Z,95010.00
2018-08-12T14:51:51.965Z,95005.00
2018-08-12T14:54:22.816Z,95009.00
2018-08-12T14:56:53.784Z,95010.00
2018-08-12T14:59:24.733Z,95004.00
2018-08-12T15:01:55.764Z,95012.00
2018-08-12T15:04:26.705Z,95006.00
2018-08-12T15:06:58.364Z,95006.00
2018-08-12T15:09:29.281Z,95002.00
2018-08-12T15:12:00.224Z,94999.00
2018-08-12T15:14:31.225Z,95004.00
2018-08-12T15:17:02.264Z,94999.00
2018-08-12T15:19:33.265Z,94991.00
2018-08-12T15:22:04.305Z,94990.00
2018-08-12T15:24:35.341Z,94995.00
2018-08-12T15:27:06.697Z,94989.00
2018-08-12T15:29:37.728Z,94993.00
2018-08-12T15:32:08.725Z,94993.00
2018-08-12T15:34:39.696Z,94985.00
2018-08-12T15:37:10.696Z,94984.00
2018-08-12T15:39:41.615Z,94992.00
2018-08-12T15:42:12.632Z,94995.00
2018-08-12T15:44:43.589Z,94993.00
2018-08-12T15:47:14.591Z,94989.00
2018-08-12T15:49:45.586Z,94987.00
2018-08-12T15:52:16.584Z,94988.00
2018-08-12T15:54:47.599Z,94982.00
2018-08-12T15:57:18.600Z,94977.00
2018-08-12T15:59:49.484Z,94979.00
2018-08-12T16:02:20.505Z,94979.00
2018-08-12T16:04:51.449Z,94975.00
2018-08-12T16:07:22.566Z,94973.00
2018-08-12T16:09:53.464Z,94971.00
2018-08-12T16:12:24.612Z,94963.00
2018-08-12T16:14:55.614Z,94965.00
2018-08-12T16:17:26.722Z,94967.00
2018-08-12T16:19:57.847Z,94964.00
2018-08-12T16:22:28.804Z,94965.00
2018-08-12T16:24:59.786Z,94967.00
2018-08-12T16:27:30.806Z,94959.00
2018-08-12T16:30:02.544Z,94959.00
2018-08-12T16:32:33.518Z,94966.00
2018-08-12T16:35:10.586Z,94961.00
2018-08-12T16:37:43.360Z,94962.00
2018-08-12T16:40:18.016Z,94968.00
2018-08-12T16:42:49.256Z,94966.00
2018-08-12T16:45:20.929Z,94970.00
2018-08-12T16:47:51.886Z,94968.00
2018-08-12T16:50:23.662Z,94970.00
2018-08-12T16:52:54.684Z,94968.00
2018-08-12T16:55:26.007Z,94974.00
2018-08-12T16:57:57.089Z,94970.00
2018-08-12T17:00:28.162Z,94963.00
2018-08-12T17:02:59.085Z,94969.00
2018-08-12T17:05:30.063Z,94963.00
2018-08-12T17:08:01.015Z,94960.00
2018-08-12T17:10:31.990Z,94960.00
2018-08-12T17:13:03.044Z,94956.00
2018-08-12T17:15:33.937Z,94960.00
2018-08-12T17:18:05.187Z,94964.00
2018-08-12T17:20:36.140Z,94962.00
2018-08-12T17:23:07.151Z,94970.00
2018-08-12T17:25:38.329Z,94963.00
2018-08-12T17:28:10.191Z,94964.00
2018-08-12T17:30:41.488Z,94973.00
2018-08-12T17:33:13.172Z,94973.00
2018-08-12T17:35:44.238Z,94972.00
2018-08-12T17:38:15.189Z,94973.00
2018-08-12T17:40:46.516Z,94976.00
2018-08-12T17:43:17.827Z,94980.00
2018-08-12T17:45:48.879Z,94988.00
2018-08-12T17:48:19.962Z,94987.00
2018-08-12T17:50:50.889Z,94985.00
2018-08-12T17:53:21.853Z,94991.00
2018-08-12T17:55:52.763Z,94993.00
2018-08-12T17:58:24.056Z,94997.00
2018-08-12T18:00:54.941Z,95003.00
2018-08-12T18:03:25.920Z,95005.00
2018-08-12T18:05:56.921Z,95009.00
2018-08-12T18:08:27.879Z,95003.00
2018-08-12T18:10:58.782Z,95006.00
2018-08-12T18:13:29.784Z,95011.00
2018-08-12T18:16:00.700Z,95009.00
2018-08-12T18:18:31.922Z,95017.00
2018-08-12T18:21:02.904Z,95022.00
2018-08-12T18:23:34.353Z,95027.00
2018-08-12T18:26:05.406Z,95027.00
2018-08-12T18:28:36.435Z,95032.00
2018-08-12T18:31:07.600Z,95026.00
2018-08-12T18:33:38.627Z,95030.00
2018-08-12T18:36:09.625Z,95034.00
2018-08-12T18:38:41.164Z,95031.00
2018-08-12T18:41:12.065Z,95034.00
2018-08-12T18:43:43.057Z,95035.00
2018-08-12T18:46:14.009Z,95046.00
2018-08-12T18:48:45.005Z,95042.00
2018-08-12T18:51:15.946Z,95038.00
2018-08-12T18:53:46.952Z,95040.00
2018-08-12T18:56:17.905Z,95038.00
2018-08-12T18:58:48.897Z,95042.00
2018-08-12T19:01:19.910Z,95037.00
2018-08-12T19:03:50.924Z,95039.00
2018-08-12T19:06:22.236Z,95041.00
2018-08-12T19:08:53.316Z,95038.00
2018-08-12T19:11:24.339Z,95042.00
2018-08-12T19:13:55.475Z,95041.00
2018-08-12T19:16:27.065Z,95053.00
2018-08-12T19:18:58.436Z,95054.00
2018-08-12T19:21:32.398Z,95057.00
2018-08-12T19:24:03.438Z,95062.00
2018-08-12T19:26:34.389Z,95063.00
2018-08-12T19:29:05.403Z,95064.00
2018-08-12T19:31:37.278Z,95063.00
2018-08-12T19:34:08.399Z,95061.00
2018-08-12T19:36:39.352Z,95063.00
2018-08-12T19:39:12.639Z,95064.00
2018-08-12T19:41:43.566Z,95063.00
2018-08-12T19:44:16.066Z,95072.00
2018-08-12T19:46:49.243Z,95074.00
2018-08-12T19:49:20.530Z,95079.00
2018-08-12T19:51:53.133Z,95084.00
2018-08-12T19:54:24.125Z,95078.00
2018-08-12T19:56:54.955Z,95080.00
2018-08-12T19:59:27.494Z,95083.00
2018-08-12T20:01:58.415Z,95084.00
2018-08-12T20:04:29.405Z,95080.00
2018-08-12T20:07:00.418Z,95083.00
2018-08-12T20:09:31.326Z,95083.00
2018-08-12T20:12:02.375Z,95084.00
2018-08-12T20:14:33.703Z,95086.00
2018-08-12T20:17:05.519Z,95083.00
2018-08-12T20:19:36.500Z,95079.00
2018-08-12T20:22:13.436Z,95085.00
2018-08-12T20:24:45.724Z,95086.00
2018-08-12T20:27:16.633Z,95088.00
2018-08-12T20:29:47.673Z,95088.00
2018-08-12T20:32:18.596Z,95092.00
2018-08-12T20:34:49.631Z,95104.00
2018-08-12T20:37:20.588Z,95126.00
2018-08-12T20:39:51.604Z,95143.00
2018-08-12T20:42:22.545Z,95153.00
2018-08-12T20:44:53.508Z,95157.00
2018-08-12T20:47:24.590Z,95162.00
2018-08-12T20:49:55.544Z,95168.00
2018-08-12T20:52:27.365Z,95176.00
2018-08-12T20:54:58.356Z,95177.00
2018-08-12T20:57:29.301Z,95173.00
2018-08-12T21:00:00.381Z,95170.00
2018-08-12T21:02:31.296Z,95178.00
2018-08-12T21:05:02.324Z,95174.00
2018-08-12T21:07:33.225Z,95184.00
2018-08-12T21:10:04.449Z,95181.00
2018-08-12T21:12:35.330Z,95191.00
2018-08-12T21:15:06.545Z,95194.00
2018-08-12T21:17:37.585Z,95190.00
2018-08-12T21:20:08.564Z,95195.00
2018-08-12T21:22:40.288Z,95192.00
2018-08-12T21:25:11.184Z,95197.00
2018-08-12T21:27:42.122Z,95191.00
2018-08-12T21:30:13.997Z,95191.00
2018-08-12T21:32:44.917Z,95181.00
2018-08-12T21:35:15.884Z,95190.00
2018-08-12T21:37:46.728Z,95199.00
2018-08-12T21:40:17.666Z,95204.00
2018-08-12T21:42:48.584Z,95205.00
2018-08-12T21:45:19.500Z,95207.00
2018-08-12T21:47:50.501Z,95212.00
2018-08-12T21:50:21.504Z,95215.00
2018-08-12T21:52:52.452Z,95217.00
2018-08-12T21:55:23.452Z,95213.00
2018-08-12T21:57:54.396Z,95206.00
2018-08-12T22:00:25.406Z,95193.00
2018-08-12T22:02:56.306Z,95195.00
2018-08-12T22:05:27.287Z,95198.00
2018-08-12T22:07:58.345Z,95198.00
2018-08-12T22:10:29.285Z,95202.00
2018-08-12T22:13:00.153Z,95195.00
2018-08-12T22:15:31.457Z,95188.00
2018-08-12T22:18:02.566Z,95189.00
2018-08-12T22:20:33.517Z,95183.00
2018-08-12T22:23:05.296Z,95183.00
2018-08-12T22:25:36.384Z,95185.00
2018-08-12T22:28:07.357Z,95182.00
2018-08-12T22:30:38.332Z,95184.00
2018-08-12T22:33:09.256Z,95183.00
2018-08-12T22:35:40.204Z,95184.00
2018-08-12T22:38:11.128Z,95187.00
2018-08-12T22:40:42.112Z,95178.00
2018-08-12T22:43:13.005Z,95178.00
2018-08-12T22:45:43.967Z,95178.00
2018-08-12T22:48:14.796Z,95178.00
2018-08-12T22:50:45.744Z,95178.00
2018-08-12T22:53:16.624Z,95178.00
2018-08-12T22:55:47.508Z,95186.00
2018-08-12T22:58:18.424Z,95182.00
2018-08-12T23:00:49.504Z,95184.00
2018-08-12T23:03:20.504Z,95187.00
2018-08-12T23:05:51.424Z,95190.00
2018-08-12T23:08:22.345Z,95180.00
2018-08-12T23:10:53.344Z,95184.00
2018-08-12T23:13:24.374Z,95186.00
2018-08-12T23:16:21.824Z,95180.00
2018-08-12T23:18:52.796Z,95182.00
2018-08-12T23:21:23.888Z,95184.00
2018-08-12T23:23:54.664Z,95188.00
2018-08-12T23:26:25.688Z,95191.00
2018-08-12T23:28:57.176Z,95194.00
2018-08-12T23:31:28.086Z,95189.00
2018-08-12T23:33:59.007Z,95184.00
2018-08-12T23:36:29.924Z,95176.00
2018-08-12T23:39:00.864Z,95183.00
2018-08-12T23:41:31.757Z,95179.00
2018-08-12T23:44:02.629Z,95175.00
2018-08-12T23:46:33.605Z,95176.00
2018-08-12T23:49:04.540Z,95175.00
2018-08-12T23:51:35.437Z,95169.00
2018-08-12T23:54:06.444Z,95168.00
2018-08-12T23:56:37.405Z,95166.00
2018-08-12T23:59:08.318Z,95164.00
